Time;durP1;ratioP1;P1;durP2;ratioP2;P2;SDS_P1;SDS_P2;PMS_P1;PMS_P2;Temp;Humidity;BMP_temperature;BMP_pressure;BME280_temperature;BME280_humidity;BME280_pressure;Samples;Min_cycle;Max_cycle;Signal;HPM_P1;HPM_P2
2022/01/27 00:01:22;;;;;;;64.40;24.55;;;;;;;8.82;56.11;101946.50;4934389;28;98749;-77
2022/01/27 00:04:00;;;;;;;64.50;24.25;;;;;;;8.85;56.07;101942.09;4933759;28;98949;-77
2022/01/27 00:06:27;;;;;;;59.75;22.58;;;;;;;7.88;57.43;101940.16;4931193;28;98103;-77
2022/01/27 00:09:00;;;;;;;60.13;22.60;;;;;;;8.14;59.07;101935.59;4939515;28;96723;-77
2022/01/27 00:11:27;;;;;;;57.40;22.60;;;;;;;8.15;58.49;101945.25;4944164;28;96878;-78
2022/01/27 00:13:58;;;;;;;52.92;21.92;;;;;;;8.00;58.17;101945.38;4944261;28;99356;-76
2022/01/27 00:16:30;;;;;;;61.58;22.83;;;;;;;7.90;58.84;101941.03;4945603;28;101308;-76
2022/01/27 00:18:57;;;;;;;56.08;21.38;;;;;;;7.83;59.73;101931.41;4940812;28;97363;-77
2022/01/27 00:21:26;;;;;;;56.67;21.23;;;;;;;7.95;59.30;101931.34;4945765;28;96746;-76
2022/01/27 00:23:53;;;;;;;59.50;21.10;;;;;;;8.24;58.86;101920.63;4946969;28;98481;-76
2022/01/27 00:26:21;;;;;;;54.50;21.08;;;;;;;8.48;58.30;101916.94;4949681;28;96844;-76
2022/01/27 00:28:49;;;;;;;53.92;21.38;;;;;;;8.32;58.12;101918.84;4929796;28;96766;-77
2022/01/27 00:31:17;;;;;;;56.55;20.80;;;;;;;8.25;58.15;101919.75;4932837;28;96800;-78
2022/01/27 00:33:45;;;;;;;51.78;20.23;;;;;;;8.49;57.60;101921.34;4935485;28;98915;-79
2022/01/27 00:36:12;;;;;;;50.85;18.92;;;;;;;8.05;58.95;101917.25;4935180;28;99836;-78
2022/01/27 00:38:38;;;;;;;52.15;20.60;;;;;;;7.90;59.21;101912.06;4930060;28;97661;-77
2022/01/27 00:41:06;;;;;;;49.50;21.45;;;;;;;7.96;59.92;101893.59;4928425;28;96838;-78
2022/01/27 00:43:34;;;;;;;48.92;19.55;;;;;;;8.07;59.37;101881.28;4930924;28;98236;-79
2022/01/27 00:46:00;;;;;;;51.95;19.90;;;;;;;7.94;58.91;101876.97;4934498;28;98021;-78
2022/01/27 00:48:27;;;;;;;46.58;19.05;;;;;;;7.35;60.30;101880.78;4936089;28;96828;-78
2022/01/27 00:50:57;;;;;;;48.00;19.75;;;;;;;7.82;60.19;101861.25;4936175;28;96885;-77
2022/01/27 00:53:32;;;;;;;46.25;18.58;;;;;;;8.06;59.30;101869.00;4938259;28;98978;-77
2022/01/27 00:56:07;;;;;;;55.20;21.13;;;;;;;8.43;58.00;101858.16;4924401;28;98444;-78
2022/01/27 00:58:46;;;;;;;49.35;19.58;;;;;;;8.31;57.79;101857.41;4935776;28;98758;-79
2022/01/27 01:01:16;;;;;;;52.15;20.65;;;;;;;8.46;57.40;101859.03;4926626;28;96876;-78
2022/01/27 01:03:46;;;;;;;50.33;20.17;;;;;;;8.16;58.48;101856.63;4933990;28;98986;-79
2022/01/27 01:06:31;;;;;;;49.75;19.65;;;;;;;8.35;57.62;101859.13;4924943;28;99857;-77
2022/01/27 01:12:27;;;;;;;48.40;19.10;;;;;;;8.32;58.19;101846.00;4932007;28;96837;-78
2022/01/27 01:14:56;;;;;;;44.17;17.83;;;;;;;8.52;57.17;101831.75;4929061;28;98647;-79
2022/01/27 01:20:26;;;;;;;45.30;18.70;;;;;;;8.55;57.16;101832.59;4888481;28;96944;-77
2022/01/27 01:31:30;;;;;;;40.10;16.98;;;;;;;8.06;58.20;101842.66;4930314;28;96901;-77
2022/01/27 01:34:10;;;;;;;42.40;16.77;;;;;;;8.28;57.91;101828.41;4933415;28;97391;-77
2022/01/27 01:36:43;;;;;;;43.33;18.50;;;;;;;8.46;57.84;101830.06;4930245;28;99166;-78
2022/01/27 01:39:14;;;;;;;41.88;16.42;;;;;;;8.27;57.67;101829.28;4930373;28;98903;-78
2022/01/27 01:41:41;;;;;;;36.30;16.50;;;;;;;8.07;57.91;101822.47;4950694;22;97040;-74
2022/01/27 01:44:08;;;;;;;38.38;15.93;;;;;;;8.34;58.14;101809.09;4947743;28;97246;-73
2022/01/27 01:46:36;;;;;;;39.45;17.00;;;;;;;8.41;57.44;101818.66;4946999;28;98845;-74
2022/01/27 01:49:03;;;;;;;38.28;16.23;;;;;;;8.39;57.81;101816.06;4946460;28;99099;-74
2022/01/27 01:51:32;;;;;;;38.00;16.42;;;;;;;8.26;58.08;101814.41;4952769;28;97603;-74
2022/01/27 01:53:59;;;;;;;40.53;16.58;;;;;;;8.27;57.35;101800.31;4945581;28;97207;-74
2022/01/27 01:56:25;;;;;;;34.50;15.27;;;;;;;8.07;57.99;101798.78;4951671;28;99633;-75
2022/01/27 01:58:52;;;;;;;34.15;15.30;;;;;;;8.37;57.87;101788.88;4948961;28;99746;-75
2022/01/27 02:01:19;;;;;;;33.47;15.98;;;;;;;8.75;56.65;101774.41;4947485;28;98466;-75
2022/01/27 02:03:47;;;;;;;39.55;18.17;;;;;;;8.76;56.26;101768.25;4950324;28;96898;-75
2022/01/27 02:06:20;;;;;;;33.60;15.05;;;;;;;8.87;56.23;101765.47;4947936;28;99034;-74
2022/01/27 02:09:04;;;;;;;31.80;14.02;;;;;;;8.62;56.52;101754.34;4951774;28;99341;-75
2022/01/27 02:19:58;;;;;;;33.78;16.25;;;;;;;8.88;56.62;101728.56;4954470;28;97154;-75
2022/01/27 02:22:25;;;;;;;30.73;14.35;;;;;;;8.84;56.26;101726.00;4951085;28;96821;-74
2022/01/27 02:24:52;;;;;;;32.15;13.88;;;;;;;8.61;56.45;101732.41;4951275;28;97099;-75
2022/01/27 02:27:24;;;;;;;30.35;13.50;;;;;;;8.52;56.81;101716.72;4949534;28;101714;-75
2022/01/27 02:29:50;;;;;;;29.10;13.73;;;;;;;8.56;56.50;101707.00;4952230;28;99408;-73
2022/01/27 02:32:19;;;;;;;28.33;14.45;;;;;;;8.56;56.71;101707.00;4951470;28;96725;-74
2022/01/27 02:34:46;;;;;;;28.33;13.75;;;;;;;8.49;56.81;101705.34;4951262;28;97069;-73
2022/01/27 02:37:14;;;;;;;32.33;15.05;;;;;;;8.61;56.98;101702.56;4948141;28;99259;-73
2022/01/27 02:39:41;;;;;;;30.20;15.07;;;;;;;8.73;56.23;101705.91;4952302;28;99663;-73
2022/01/27 02:42:13;;;;;;;25.75;13.57;;;;;;;8.74;56.03;101707.66;4950516;28;97295;-73
2022/01/27 02:44:52;;;;;;;28.20;13.43;;;;;;;8.73;56.32;101702.38;4951706;28;97495;-74
2022/01/27 02:47:19;;;;;;;30.20;14.77;;;;;;;8.60;56.14;101696.41;4953206;28;99509;-73
2022/01/27 02:49:45;;;;;;;27.98;14.40;;;;;;;8.58;56.42;101694.69;4950480;28;99484;-73
2022/01/27 02:52:13;;;;;;;29.35;14.07;;;;;;;8.84;56.20;101684.69;4951640;28;96676;-73
2022/01/27 02:54:43;;;;;;;29.42;14.27;;;;;;;8.77;55.87;101688.31;4953647;28;97844;-73
2022/01/27 02:57:09;;;;;;;29.40;12.88;;;;;;;8.66;56.52;101693.69;4951302;28;101687;-74
2022/01/27 02:59:36;;;;;;;29.35;14.13;;;;;;;8.42;56.54;101694.00;4954573;28;100440;-74
2022/01/27 03:02:03;;;;;;;28.60;13.98;;;;;;;8.04;57.58;101682.97;4951915;28;98458;-74
2022/01/27 03:04:30;;;;;;;26.30;13.30;;;;;;;8.42;57.12;101665.03;4952155;28;98105;-74
2022/01/27 03:06:57;;;;;;;31.52;13.52;;;;;;;8.60;56.92;101658.69;4949382;28;99339;-74
2022/01/27 03:09:25;;;;;;;26.33;13.52;;;;;;;8.80;56.77;101648.72;4944917;28;99573;-74
2022/01/27 03:11:57;;;;;;;30.55;14.82;;;;;;;8.81;56.28;101650.47;4955080;28;96885;-75
2022/01/27 03:14:25;;;;;;;29.58;13.73;;;;;;;8.74;56.45;101648.81;4953859;28;96914;-74
2022/01/27 03:16:55;;;;;;;25.58;13.18;;;;;;;8.71;56.29;101643.59;4952578;28;99009;-74
2022/01/27 03:19:21;;;;;;;27.23;14.25;;;;;;;8.37;56.92;101630.84;4951605;28;98992;-74
2022/01/27 03:21:47;;;;;;;28.95;14.05;;;;;;;8.64;56.86;101634.03;4955744;28;96829;-74
2022/01/27 03:24:14;;;;;;;25.20;13.65;;;;;;;8.67;56.66;101615.53;4947890;28;96898;-74
2022/01/27 03:26:42;;;;;;;24.85;12.95;;;;;;;8.80;56.64;101611.81;4950357;28;99620;-74
2022/01/27 03:29:09;;;;;;;24.73;12.70;;;;;;;9.00;55.93;101619.44;4949068;28;98884;-74
2022/01/27 03:31:35;;;;;;;27.00;13.27;;;;;;;8.96;56.06;101615.97;4950024;28;97091;-74
2022/01/27 03:34:02;;;;;;;25.20;13.10;;;;;;;8.85;56.18;101622.31;4948533;28;96817;-75
2022/01/27 03:36:28;;;;;;;27.25;13.50;;;;;;;8.75;55.96;101624.19;4951226;28;99466;-73
2022/01/27 03:38:55;;;;;;;25.65;14.15;;;;;;;8.33;57.84;101607.22;4953358;28;99278;-76
2022/01/27 03:41:23;;;;;;;27.13;13.98;;;;;;;8.65;57.51;101596.25;4956729;28;96868;-73
2022/01/27 03:43:52;;;;;;;27.38;13.88;;;;;;;8.63;56.69;101595.38;4950098;28;96686;-75
2022/01/27 03:46:19;;;;;;;28.13;14.00;;;;;;;8.88;56.64;101594.13;4955053;28;99155;-75
2022/01/27 03:48:45;;;;;;;27.33;13.60;;;;;;;8.50;56.79;101597.31;4952165;28;99357;-74
2022/01/27 03:51:11;;;;;;;24.25;12.95;;;;;;;8.87;56.86;101596.78;4954399;28;96801;-74
2022/01/27 03:53:38;;;;;;;25.20;12.20;;;;;;;9.10;55.58;101585.00;4954463;28;96834;-74
2022/01/27 03:56:05;;;;;;;24.92;12.68;;;;;;;8.89;56.44;101571.28;4955274;28;97087;-73
2022/01/27 03:58:32;;;;;;;24.58;12.88;;;;;;;9.06;56.23;101578.03;4959607;28;99469;-73
2022/01/27 04:00:59;;;;;;;24.17;12.15;;;;;;;8.18;57.76;101579.28;4959889;28;96842;-74
2022/01/27 04:03:28;;;;;;;27.08;12.45;;;;;;;8.53;57.81;101578.00;4956645;28;97053;-74
2022/01/27 04:05:56;;;;;;;22.67;12.43;;;;;;;8.70;57.05;101578.59;4950243;28;98985;-73
2022/01/27 04:08:23;;;;;;;20.48;11.43;;;;;;;8.65;56.95;101585.72;4951895;28;99125;-73
2022/01/27 04:10:50;;;;;;;23.02;12.02;;;;;;;8.23;58.91;101581.84;4950514;28;96805;-73
2022/01/27 04:13:17;;;;;;;22.20;11.82;;;;;;;8.69;57.87;101571.59;4951627;28;97610;-74
2022/01/27 04:15:44;;;;;;;23.23;11.93;;;;;;;8.61;57.05;101578.72;4949644;28;99028;-73
2022/01/27 04:18:12;;;;;;;24.40;11.57;;;;;;;8.65;57.81;101572.53;4951136;28;99284;-73
2022/01/27 04:20:38;;;;;;;27.17;13.23;;;;;;;8.47;58.44;101563.09;4951025;28;97663;-73
2022/01/27 04:23:05;;;;;;;25.63;11.43;;;;;;;8.62;57.85;101564.66;4947175;28;97651;-73
2022/01/27 04:25:32;;;;;;;22.35;11.93;;;;;;;8.24;58.84;101567.78;4950577;28;99770;-74
2022/01/27 04:28:03;;;;;;;21.55;12.30;;;;;;;8.52;58.09;101558.66;4951296;28;98888;-74
2022/01/27 04:30:29;;;;;;;22.00;10.55;;;;;;;8.37;57.55;101564.16;4948032;28;99051;-76
2022/01/27 04:32:58;;;;;;;21.60;12.07;;;;;;;8.64;57.39;101552.34;4951626;28;97424;-74
2022/01/27 04:35:29;;;;;;;21.05;11.32;;;;;;;8.76;56.35;101558.31;4945607;28;99524;-75
2022/01/27 04:38:11;;;;;;;20.63;10.98;;;;;;;8.86;55.82;101550.28;4951227;28;99362;-74
2022/01/27 04:40:45;;;;;;;21.20;11.02;;;;;;;8.62;57.32;101554.13;4949782;28;96826;-74
2022/01/27 04:43:20;;;;;;;26.48;10.45;;;;;;;8.25;58.37;101553.75;4948173;28;96871;-73
2022/01/27 04:45:55;;;;;;;18.48;9.63;;;;;;;8.48;57.12;101542.91;4947227;28;99430;-73
2022/01/27 04:48:22;;;;;;;17.25;9.50;;;;;;;8.67;56.73;101534.72;4954193;28;97901;-74
2022/01/27 04:50:51;;;;;;;16.60;9.63;;;;;;;8.89;55.36;101547.56;4950744;28;97413;-74
2022/01/27 04:53:24;;;;;;;15.98;9.80;;;;;;;9.06;55.58;101543.75;4950954;28;98550;-74
2022/01/27 04:55:50;;;;;;;20.55;9.73;;;;;;;8.62;56.20;101539.19;4953973;28;99016;-75
2022/01/27 04:58:21;;;;;;;16.90;10.15;;;;;;;8.68;55.73;101522.41;4948835;28;99245;-74
2022/01/27 05:00:47;;;;;;;16.75;9.30;;;;;;;8.81;55.63;101518.69;4949773;28;97537;-74
2022/01/27 05:03:20;;;;;;;18.55;9.05;;;;;;;8.86;54.43;101510.72;4950020;28;97149;-74
2022/01/27 05:05:46;;;;;;;19.52;9.13;;;;;;;8.76;55.73;101499.47;4949735;28;99325;-74
2022/01/27 05:08:18;;;;;;;15.68;8.30;;;;;;;8.47;55.77;101496.41;4946437;28;99046;-74
2022/01/27 05:10:54;;;;;;;17.73;8.70;;;;;;;8.58;56.54;101499.75;4947554;28;96820;-74
2022/01/27 05:13:25;;;;;;;15.68;7.88;;;;;;;8.33;55.82;101497.50;4950426;28;97072;-74
2022/01/27 05:15:52;;;;;;;14.48;8.68;;;;;;;8.43;56.76;101481.53;4952032;28;97894;-74
2022/01/27 05:18:20;;;;;;;13.93;7.75;;;;;;;8.36;56.51;101488.66;4948127;28;99534;-73
2022/01/27 05:20:46;;;;;;;14.50;8.23;;;;;;;8.53;56.37;101485.78;4949101;28;96841;-73
2022/01/27 05:23:14;;;;;;;14.75;7.82;;;;;;;8.43;56.22;101465.72;4949609;28;97030;-74
2022/01/27 05:25:41;;;;;;;13.02;7.70;;;;;;;8.22;56.36;101467.75;4951244;28;98336;-74
2022/01/27 05:28:08;;;;;;;14.20;8.43;;;;;;;8.50;55.85;101464.75;4947312;28;99615;-74
2022/01/27 05:30:35;;;;;;;12.23;8.20;;;;;;;8.44;55.24;101459.56;4951056;28;96890;-74
2022/01/27 05:33:02;;;;;;;13.43;8.10;;;;;;;8.17;56.09;101443.25;4948102;28;96874;-75
2022/01/27 05:35:28;;;;;;;17.15;9.10;;;;;;;8.43;55.81;101440.28;4952061;28;99339;-75
2022/01/27 05:37:55;;;;;;;17.13;8.45;;;;;;;8.58;55.26;101437.41;4949008;28;98822;-75
2022/01/27 05:40:22;;;;;;;14.30;8.13;;;;;;;8.66;54.64;101439.91;4953151;28;96857;-75
2022/01/27 05:42:49;;;;;;;14.80;8.48;;;;;;;8.72;54.24;101435.41;4948192;28;97136;-74
2022/01/27 05:45:15;;;;;;;13.85;8.07;;;;;;;8.66;54.68;101426.75;4953412;28;99747;-74
2022/01/27 05:47:41;;;;;;;16.98;8.18;;;;;;;8.67;54.37;101431.97;4952910;28;99078;-74
2022/01/27 05:50:09;;;;;;;15.90;8.93;;;;;;;8.72;54.43;101434.53;4949600;28;97026;-74
2022/01/27 05:52:35;;;;;;;18.55;8.68;;;;;;;8.87;53.71;101439.53;4951706;28;97276;-74
2022/01/27 05:55:02;;;;;;;16.05;8.88;;;;;;;8.63;53.67;101443.47;4951844;28;99057;-74
2022/01/27 05:57:29;;;;;;;15.25;9.05;;;;;;;8.95;53.83;101434.13;4948050;28;98919;-75
2022/01/27 05:59:56;;;;;;;14.32;8.52;;;;;;;8.70;53.99;101436.31;4953221;28;97529;-74
2022/01/27 06:02:22;;;;;;;16.58;9.85;;;;;;;8.75;54.48;101431.84;4948701;28;96860;-73
2022/01/27 06:04:48;;;;;;;20.13;10.18;;;;;;;8.44;55.50;101420.94;4953705;28;100721;-75
2022/01/27 06:07:15;;;;;;;17.60;9.65;;;;;;;8.59;55.29;101423.34;4951840;28;101835;-75
2022/01/27 06:09:41;;;;;;;18.65;9.90;;;;;;;8.66;55.56;101416.19;4952334;28;97478;-74
2022/01/27 06:12:08;;;;;;;17.60;9.70;;;;;;;8.61;55.03;101407.47;4952410;28;96837;-75
2022/01/27 06:14:36;;;;;;;16.48;9.90;;;;;;;8.18;56.64;101404.66;4949630;28;98990;-74
2022/01/27 06:17:03;;;;;;;22.67;11.10;;;;;;;8.12;57.21;101402.97;4950764;28;99296;-75
2022/01/27 06:19:30;;;;;;;20.20;11.48;;;;;;;8.40;56.83;101406.94;4951287;28;96994;-74
2022/01/27 06:21:56;;;;;;;22.38;11.50;;;;;;;8.53;55.91;101393.59;4951958;28;96845;-75
2022/01/27 06:24:23;;;;;;;18.55;11.10;;;;;;;8.27;56.24;101405.38;4951089;28;98745;-75
2022/01/27 06:26:49;;;;;;;19.23;11.55;;;;;;;8.40;55.99;101404.31;4950973;28;99618;-75
2022/01/27 06:29:15;;;;;;;21.92;11.57;;;;;;;8.31;56.50;101390.44;4948995;28;97191;-76
2022/01/27 06:31:43;;;;;;;23.20;12.50;;;;;;;8.05;56.71;101384.66;4952107;28;97643;-75
2022/01/27 06:34:10;;;;;;;22.48;13.02;;;;;;;8.18;57.27;101388.84;4947617;28;99085;-78
2022/01/27 06:36:36;;;;;;;20.92;12.43;;;;;;;7.88;58.05;101375.25;4947895;28;99159;-76
2022/01/27 06:39:03;;;;;;;19.90;12.25;;;;;;;8.27;56.98;101386.94;4954203;28;96856;-75
2022/01/27 06:41:29;;;;;;;24.98;12.73;;;;;;;8.23;57.09;101381.75;4953912;28;97212;-76
2022/01/27 06:43:58;;;;;;;27.98;14.98;;;;;;;8.21;57.11;101365.97;4955203;28;99360;-75
2022/01/27 06:46:25;;;;;;;23.27;13.98;;;;;;;8.42;56.36;101371.81;4952445;28;99662;-77
2022/01/27 06:48:52;;;;;;;26.17;14.10;;;;;;;8.37;56.34;101380.69;4952483;28;99430;-76
2022/01/27 06:51:19;;;;;;;26.92;14.23;;;;;;;8.69;55.74;101376.63;4950872;28;96919;-76
2022/01/27 06:53:45;;;;;;;29.15;14.27;;;;;;;8.65;55.78;101386.34;4950171;28;98082;-75
2022/01/27 06:56:12;;;;;;;31.83;15.80;;;;;;;8.71;55.36;101382.72;4951966;28;99434;-76
2022/01/27 06:58:39;;;;;;;29.77;15.68;;;;;;;8.44;55.97;101377.94;4952069;28;97221;-76
2022/01/27 07:01:05;;;;;;;25.75;14.80;;;;;;;8.58;55.88;101389.13;4952975;28;98689;-76
2022/01/27 07:03:31;;;;;;;27.67;15.98;;;;;;;8.68;55.64;101385.41;4950518;28;99074;-74
2022/01/27 07:05:59;;;;;;;33.33;16.95;;;;;;;8.65;55.46;101365.28;4947471;28;100032;-75
2022/01/27 07:08:26;;;;;;;34.08;15.82;;;;;;;8.75;55.40;101376.50;4949822;28;98937;-75
2022/01/27 07:10:52;;;;;;;35.47;17.55;;;;;;;8.95;54.29;101369.09;4952265;28;97083;-74
2022/01/27 07:13:19;;;;;;;31.42;17.85;;;;;;;9.01;54.37;101373.38;4950353;28;98962;-74
2022/01/27 07:15:45;;;;;;;32.85;18.95;;;;;;;8.96;53.81;101364.69;4953613;28;97986;-76
2022/01/27 07:18:11;;;;;;;33.40;18.27;;;;;;;9.07;53.55;101353.03;4953901;28;97337;-74
2022/01/27 07:20:38;;;;;;;39.00;18.80;;;;;;;8.64;55.28;101357.38;4950903;28;98103;-76
2022/01/27 07:23:07;;;;;;;36.97;20.95;;;;;;;8.10;56.78;101362.66;4952089;28;99471;-74
2022/01/27 07:25:33;;;;;;;38.92;20.90;;;;;;;8.70;55.80;101363.41;4950515;28;101827;-75
2022/01/27 07:28:00;;;;;;;39.67;20.83;;;;;;;8.44;54.86;101349.84;4956198;28;97224;-75
2022/01/27 07:30:26;;;;;;;41.33;21.83;;;;;;;8.31;55.44;101353.56;4951829;28;96914;-74
2022/01/27 07:32:52;;;;;;;42.63;23.10;;;;;;;8.66;54.81;101358.25;4948184;28;99244;-75
2022/01/27 07:35:19;;;;;;;46.95;23.23;;;;;;;8.67;54.22;101352.06;4949402;28;98655;-73
2022/01/27 07:37:46;;;;;;;41.42;23.00;;;;;;;8.51;54.23;101334.78;4952534;28;97268;-72
2022/01/27 07:40:14;;;;;;;45.90;24.25;;;;;;;8.45;54.63;101340.16;4952975;28;96847;-73
2022/01/27 07:53:31;;;;;;;49.87;25.43;;;;;;;8.18;54.61;101329.19;5350901;22;98369;-80
2022/01/27 08:14:25;;;;;;;54.83;27.50;;;;;;;8.84;52.42;101309.59;5033322;22;99194;-80
2022/01/27 08:16:58;;;;;;;52.30;26.33;;;;;;;8.78;52.08;101305.31;5002716;28;97111;-80
2022/01/27 08:19:26;;;;;;;50.35;26.73;;;;;;;8.81;52.29;101299.97;4993239;28;100732;-79
2022/01/27 08:21:52;;;;;;;50.72;24.90;;;;;;;8.56;52.86;101302.19;5002842;28;97679;-79
2022/01/27 08:27:43;;;;;;;49.90;24.38;;;;;;;7.96;54.13;101298.81;4972896;28;97417;-79
2022/01/27 08:30:29;;;;;;;57.03;25.60;;;;;;;8.06;53.44;101295.16;5008251;28;99002;-81
2022/01/27 08:33:46;;;;;;;52.17;25.10;;;;;;;7.89;53.53;101312.97;5010990;28;96739;-80
2022/01/27 08:36:12;;;;;;;48.75;24.77;;;;;;;8.23;53.62;101287.84;4990761;28;97788;-74
2022/01/27 08:38:43;;;;;;;50.00;25.55;;;;;;;8.37;53.47;101283.25;4991926;28;98985;-74
2022/01/27 08:41:10;;;;;;;55.78;25.25;;;;;;;8.28;53.64;101291.25;4994710;28;99166;-74
2022/01/27 08:43:36;;;;;;;54.65;26.80;;;;;;;8.62;53.77;101277.50;4990280;28;98132;-75
2022/01/27 08:46:04;;;;;;;52.85;24.20;;;;;;;8.88;52.68;101282.28;4991589;28;97177;-74
2022/01/27 08:48:31;;;;;;;50.53;24.35;;;;;;;8.50;53.41;101275.09;4991051;28;99072;-74
2022/01/27 08:51:00;;;;;;;46.58;23.50;;;;;;;8.27;53.57;101265.81;4990792;28;97530;-75
2022/01/27 08:53:30;;;;;;;50.97;23.77;;;;;;;8.43;52.99;101265.59;4991912;28;97393;-76
2022/01/27 08:55:57;;;;;;;51.35;24.73;;;;;;;8.59;53.15;101252.13;4992029;28;97075;-76
2022/01/27 08:58:25;;;;;;;47.38;24.52;;;;;;;8.07;53.33;101260.06;4991971;28;99031;-75
2022/01/27 09:00:53;;;;;;;50.15;24.40;;;;;;;8.54;53.02;101255.69;4991632;28;101205;-75
2022/01/27 09:03:21;;;;;;;49.85;22.75;;;;;;;8.39;51.71;101249.84;4982399;28;98254;-76
2022/01/27 09:05:47;;;;;;;47.90;23.55;;;;;;;8.68;52.18;101259.81;4991851;28;97717;-76
2022/01/27 09:08:14;;;;;;;47.60;23.60;;;;;;;8.72;51.75;101258.00;4995072;28;98150;-74
2022/01/27 09:10:41;;;;;;;48.97;23.23;;;;;;;8.73;51.48;101238.63;4995689;28;98933;-75
2022/01/27 09:13:08;;;;;;;49.50;22.33;;;;;;;8.82;51.52;101245.50;4995544;28;96845;-76
2022/01/27 09:15:34;;;;;;;45.70;22.45;;;;;;;8.91;50.57;101237.41;4993219;28;96892;-76
2022/01/27 09:18:01;;;;;;;49.63;22.75;;;;;;;8.96;51.02;101225.88;4992906;28;101863;-76
2022/01/27 09:20:29;;;;;;;44.42;21.48;;;;;;;8.83;50.95;101232.28;4992106;28;98750;-76
2022/01/27 09:22:58;;;;;;;50.90;21.38;;;;;;;8.49;51.78;101228.59;4988576;28;96823;-75
2022/01/27 09:25:30;;;;;;;47.78;21.88;;;;;;;8.98;51.50;101242.53;4991803;28;96824;-74
2022/01/27 09:27:58;;;;;;;45.95;21.17;;;;;;;9.01;50.93;101242.44;4992067;28;99043;-75
2022/01/27 09:30:25;;;;;;;41.45;22.00;;;;;;;8.90;50.92;101251.50;4992233;28;99149;-75
2022/01/27 09:32:52;;;;;;;40.90;19.67;;;;;;;8.44;52.47;101244.50;4991293;28;97226;-76
2022/01/27 09:35:18;;;;;;;39.00;19.92;;;;;;;8.36;53.46;101246.38;4992200;28;96790;-74
2022/01/27 09:37:46;;;;;;;42.05;20.17;;;;;;;8.57;52.48;101234.59;4990874;28;99628;-74
2022/01/27 09:40:14;;;;;;;43.40;20.25;;;;;;;8.73;52.06;101233.38;4992811;28;98934;-74
2022/01/27 09:42:42;;;;;;;41.60;20.55;;;;;;;8.72;53.15;101240.44;4990554;28;98060;-75
2022/01/27 09:45:10;;;;;;;39.88;18.27;;;;;;;8.32;53.60;101237.69;4993595;28;98500;-76
2022/01/27 09:47:40;;;;;;;38.20;19.17;;;;;;;8.69;52.91;101244.88;4989600;28;100650;-72
2022/01/27 09:50:22;;;;;;;40.58;19.88;;;;;;;8.79;53.37;101242.00;4993897;28;97675;-74
2022/01/27 09:52:49;;;;;;;40.03;18.92;;;;;;;8.95;53.58;101234.66;4990596;28;97988;-74
2022/01/27 09:55:16;;;;;;;40.25;19.58;;;;;;;8.92;54.09;101237.41;4991468;28;98169;-76
2022/01/27 09:57:42;;;;;;;37.28;19.20;;;;;;;8.93;53.60;101243.50;4992181;28;99320;-75
2022/01/27 10:00:10;;;;;;;43.58;19.00;;;;;;;9.06;54.52;101235.31;4992010;28;99112;-75
2022/01/27 10:02:36;;;;;;;35.00;17.80;;;;;;;9.28;54.24;101222.53;4993047;28;97151;-74
2022/01/27 10:05:03;;;;;;;40.33;17.92;;;;;;;9.23;54.18;101220.91;4992431;28;96865;-74
2022/01/27 10:07:33;;;;;;;38.05;18.23;;;;;;;9.13;54.70;101223.72;4990816;28;97866;-75
2022/01/27 10:10:05;;;;;;;33.33;17.83;;;;;;;9.26;54.63;101211.13;4992114;28;98850;-74
2022/01/27 10:12:36;;;;;;;37.40;18.67;;;;;;;9.05;55.23;101212.50;4989434;28;97058;-75
2022/01/27 10:15:06;;;;;;;35.00;18.48;;;;;;;9.39;55.10;101209.94;4992889;28;97082;-74
2022/01/27 10:17:37;;;;;;;35.78;17.27;;;;;;;9.30;54.79;101206.69;4992372;28;100095;-76
2022/01/27 10:20:14;;;;;;;36.30;19.23;;;;;;;9.24;54.88;101188.34;4989770;28;98686;-75
2022/01/27 10:22:40;;;;;;;38.97;18.55;;;;;;;8.86;56.61;101202.38;4993623;28;97285;-75
2022/01/27 10:25:09;;;;;;;34.78;18.42;;;;;;;8.95;56.57;101203.03;4992818;28;96816;-75
2022/01/27 10:27:55;;;;;;;38.90;18.63;;;;;;;9.23;55.72;101197.16;4994335;28;97963;-76
2022/01/27 10:30:38;;;;;;;35.75;18.55;;;;;;;8.99;56.38;101202.06;4990258;28;97579;-75
2022/01/27 10:33:05;;;;;;;40.20;18.92;;;;;;;8.85;56.85;101203.28;4987806;28;96841;-73
2022/01/27 10:35:32;;;;;;;38.28;19.05;;;;;;;8.86;57.61;101208.50;4988034;28;97324;-75
2022/01/27 10:38:04;;;;;;;42.85;19.60;;;;;;;9.02;56.78;101199.38;4991044;28;98480;-77
2022/01/27 10:40:34;;;;;;;37.05;18.15;;;;;;;8.81;56.66;101205.09;4991779;28;98975;-75
2022/01/27 10:43:12;;;;;;;36.22;18.80;;;;;;;8.67;57.51;101188.72;4991933;28;96919;-75
2022/01/27 10:45:57;;;;;;;39.42;19.38;;;;;;;8.90;57.04;101188.25;4991381;28;96797;-74
2022/01/27 10:48:27;;;;;;;43.03;19.55;;;;;;;8.93;57.31;101182.88;4992312;28;100215;-75
2022/01/27 10:51:04;;;;;;;38.33;18.15;;;;;;;8.90;57.75;101175.94;4990967;28;98721;-75
2022/01/27 10:53:51;;;;;;;39.10;19.55;;;;;;;8.74;56.94;101177.16;4995517;28;96838;-74
2022/01/27 10:56:21;;;;;;;;;;;;;;;8.95;58.03;101174.06;4995547;28;96765;-75
2022/01/27 10:58:47;;;;;;;40.65;18.92;;;;;;;8.89;57.43;101182.09;5004862;28;99201;-74
2022/01/27 11:01:26;;;;;;;38.67;18.92;;;;;;;8.99;56.99;101162.53;5005180;28;99057;-75
2022/01/27 11:03:53;;;;;;;40.72;19.60;;;;;;;8.81;58.29;101165.56;5002027;28;96966;-74
2022/01/27 11:06:23;;;;;;;40.25;19.45;;;;;;;8.23;60.02;101150.94;5002629;28;97366;-73
2022/01/27 11:08:53;;;;;;;38.20;19.50;;;;;;;8.70;58.25;101152.66;4995748;28;99565;-74
2022/01/27 11:11:23;;;;;;;39.65;19.08;;;;;;;8.50;58.99;101148.69;4997350;28;98937;-76
2022/01/27 11:13:50;;;;;;;40.60;20.50;;;;;;;8.70;59.17;101146.50;4995400;28;98970;-75
2022/01/27 11:16:21;;;;;;;38.42;18.35;;;;;;;8.42;58.21;101137.44;4993290;28;96772;-75
2022/01/27 11:18:47;;;;;;;42.47;19.75;;;;;;;8.33;60.24;101135.88;4995592;28;99551;-74
2022/01/27 11:21:27;;;;;;;38.35;18.98;;;;;;;8.77;59.87;101140.19;4995710;28;99149;-75
2022/01/27 11:24:04;;;;;;;35.22;18.98;;;;;;;8.76;59.97;101141.97;4997403;28;96715;-74
2022/01/27 11:26:34;;;;;;;37.92;18.52;;;;;;;8.84;59.89;101122.50;4995294;28;97688;-74
2022/01/27 11:29:02;;;;;;;40.58;18.80;;;;;;;8.93;59.36;101122.25;4995628;28;99010;-75
2022/01/27 11:31:40;;;;;;;34.08;17.10;;;;;;;9.18;58.71;101120.81;4993042;28;98958;-75
2022/01/27 11:34:09;;;;;;;33.10;17.50;;;;;;;8.79;58.12;101110.25;4990287;28;97387;-75
2022/01/27 11:36:37;;;;;;;34.80;16.38;;;;;;;8.74;59.62;101112.16;4994230;28;97464;-77
2022/01/27 11:39:12;;;;;;;30.63;16.33;;;;;;;8.59;60.46;101117.75;4986260;28;99010;-77
2022/01/27 11:41:43;;;;;;;32.10;15.80;;;;;;;8.41;61.00;101107.59;4996144;28;99056;-76
2022/01/27 11:44:31;;;;;;;29.85;15.93;;;;;;;8.81;60.25;101104.97;4995556;28;97145;-74
2022/01/27 11:47:18;;;;;;;33.35;16.70;;;;;;;8.44;60.54;101110.19;4995317;28;97497;-74
2022/01/27 11:49:55;;;;;;;28.13;14.30;;;;;;;8.68;60.53;101106.13;4993458;28;98941;-75
2022/01/27 11:52:23;;;;;;;29.63;15.07;;;;;;;8.65;60.47;101106.22;4994433;28;98985;-74
2022/01/27 11:54:50;;;;;;;28.88;15.15;;;;;;;8.33;61.61;101102.50;4992107;28;97441;-75
2022/01/27 11:57:40;;;;;;;29.60;15.40;;;;;;;8.49;61.81;101097.78;4995730;28;97382;-74
2022/01/27 12:00:12;;;;;;;32.83;15.93;;;;;;;8.46;62.01;101094.34;4994160;28;99072;-76
2022/01/27 12:03:14;;;;;;;31.40;16.67;;;;;;;8.96;60.82;101086.19;4997265;28;98871;-77
2022/01/27 12:05:42;;;;;;;37.03;16.20;;;;;;;8.95;60.35;101081.81;4931747;28;97564;-75
2022/01/27 12:08:25;;;;;;;35.25;16.55;;;;;;;8.94;59.64;101073.94;4932629;28;98515;-76
2022/01/27 12:10:56;;;;;;;35.17;16.20;;;;;;;9.00;60.49;101076.41;4970558;28;97978;-75
2022/01/27 12:14:02;;;;;;;34.88;16.70;;;;;;;8.58;60.67;101062.47;4996172;28;98265;-76
2022/01/27 12:19:21;;;;;;;35.80;17.70;;;;;;;9.05;60.16;101064.88;4948659;28;100182;-74
2022/01/27 12:21:59;;;;;;;33.15;16.38;;;;;;;9.04;60.22;101051.72;4998080;28;100671;-73
2022/01/27 12:24:28;;;;;;;29.63;15.32;;;;;;;9.34;59.24;101050.09;5000563;28;99064;-73
2022/01/27 12:26:57;;;;;;;32.75;17.13;;;;;;;9.46;59.06;101049.75;4994315;28;97098;-72